createdAt,value
2017-10-13T00:01:25.641Z,11.80
2017-10-13T00:03:53.169Z,11.70
2017-10-13T00:06:20.685Z,11.70
2017-10-13T00:08:48.973Z,11.60
2017-10-13T00:11:16.464Z,11.60
2017-10-13T00:13:43.993Z,11.70
2017-10-13T00:16:11.505Z,11.70
2017-10-13T00:18:39.024Z,11.70
2017-10-13T00:21:06.528Z,11.70
2017-10-13T00:23:34.045Z,11.70
2017-10-13T00:26:01.546Z,11.70
2017-10-13T00:28:29.070Z,11.70
2017-10-13T00:30:56.570Z,11.70
2017-10-13T00:33:24.085Z,11.60
2017-10-13T00:35:51.584Z,11.60
2017-10-13T00:38:19.097Z,11.60
2017-10-13T00:40:46.596Z,11.50
2017-10-13T00:43:14.123Z,11.50
2017-10-13T00:45:41.633Z,11.50
2017-10-13T00:48:09.157Z,11.50
2017-10-13T00:50:36.653Z,11.50
2017-10-13T00:53:04.177Z,11.40
2017-10-13T00:55:31.685Z,11.40
2017-10-13T00:57:59.966Z,11.40
2017-10-13T01:00:28.232Z,11.40
2017-10-13T01:02:56.526Z,11.40
2017-10-13T01:05:24.032Z,11.30
2017-10-13T01:07:51.544Z,11.40
2017-10-13T01:10:19.809Z,11.30
2017-10-13T01:12:48.105Z,11.30
2017-10-13T01:15:17.399Z,11.20
2017-10-13T01:17:45.688Z,11.30
2017-10-13T01:20:13.197Z,11.20
2017-10-13T01:22:40.717Z,11.20
2017-10-13T01:25:08.213Z,11.20
2017-10-13T01:27:35.730Z,11.20
2017-10-13T01:30:03.238Z,11.20
2017-10-13T01:32:30.757Z,11.20
2017-10-13T01:34:58.253Z,11.20
2017-10-13T01:37:25.774Z,11.20
2017-10-13T01:39:53.280Z,11.20
2017-10-13T01:42:20.906Z,11.20
2017-10-13T01:44:48.413Z,11.20
2017-10-13T01:47:15.907Z,11.10
2017-10-13T01:49:43.455Z,11.10
2017-10-13T01:52:11.724Z,11.10
2017-10-13T01:54:40.000Z,11.10
2017-10-13T01:57:08.277Z,11.10
2017-10-13T01:59:36.565Z,11.10
2017-10-13T02:02:04.085Z,11.00
2017-10-13T02:04:31.605Z,11.20
2017-10-13T02:06:59.105Z,11.20
2017-10-13T02:09:26.609Z,11.20
2017-10-13T02:11:54.125Z,11.10
2017-10-13T02:14:21.622Z,11.20
2017-10-13T02:16:49.901Z,11.20
2017-10-13T02:19:17.406Z,11.10
2017-10-13T02:21:44.925Z,11.20
2017-10-13T02:24:12.433Z,11.10
2017-10-13T02:26:39.937Z,11.10
2017-10-13T02:29:08.214Z,11.00
2017-10-13T02:31:36.481Z,10.90
2017-10-13T02:34:04.766Z,10.90
2017-10-13T02:36:33.025Z,10.90
2017-10-13T02:39:00.551Z,10.80
2017-10-13T02:41:28.069Z,10.80
2017-10-13T02:43:55.582Z,10.90
2017-10-13T02:46:23.104Z,10.90
2017-10-13T02:48:50.604Z,10.90
2017-10-13T02:51:18.116Z,10.90
2017-10-13T02:53:45.614Z,10.90
2017-10-13T02:56:13.139Z,10.90
2017-10-13T02:58:40.641Z,10.90
2017-10-13T03:01:08.127Z,10.90
2017-10-13T03:03:36.405Z,11.00
2017-10-13T03:06:04.666Z,11.00
2017-10-13T03:08:32.185Z,11.00
2017-10-13T03:10:59.686Z,11.00
2017-10-13T03:13:27.196Z,11.10
2017-10-13T03:15:54.692Z,11.10
2017-10-13T03:18:22.285Z,11.20
2017-10-13T03:20:49.816Z,11.10
2017-10-13T03:23:17.316Z,11.20
2017-10-13T03:25:44.828Z,11.20
2017-10-13T03:28:12.540Z,11.20
2017-10-13T03:30:40.054Z,11.20
2017-10-13T03:33:07.553Z,11.20
2017-10-13T03:35:35.073Z,11.20
2017-10-13T03:38:02.565Z,11.10
2017-10-13T03:40:30.050Z,11.10
2017-10-13T03:42:57.570Z,11.10
2017-10-13T03:45:25.060Z,11.00
2017-10-13T03:47:52.572Z,11.00
2017-10-13T03:50:20.073Z,10.90
2017-10-13T03:52:47.594Z,10.90
2017-10-13T03:55:15.087Z,10.90
2017-10-13T03:57:43.368Z,10.80
2017-10-13T04:00:11.844Z,10.90
2017-10-13T04:02:40.108Z,10.90
2017-10-13T04:05:08.391Z,11.00
2017-10-13T04:07:36.657Z,10.90
2017-10-13T04:10:04.165Z,10.80
2017-10-13T04:12:31.661Z,10.90
2017-10-13T04:14:59.183Z,10.90
2017-10-13T04:17:26.677Z,10.90
2017-10-13T04:19:54.168Z,10.80
2017-10-13T04:22:22.445Z,10.80
2017-10-13T04:24:50.698Z,10.80
2017-10-13T04:27:18.216Z,10.70
2017-10-13T04:29:45.714Z,10.90
2017-10-13T04:32:13.225Z,10.90
2017-10-13T04:34:40.716Z,10.90
2017-10-13T04:37:08.213Z,11.00
2017-10-13T04:39:36.492Z,11.00
2017-10-13T04:42:04.757Z,11.00
2017-10-13T04:44:32.832Z,10.90
2017-10-13T04:47:00.330Z,10.90
2017-10-13T04:49:27.833Z,10.90
2017-10-13T04:51:55.412Z,10.90
2017-10-13T04:54:22.920Z,11.00
2017-10-13T04:56:50.416Z,11.00
2017-10-13T04:59:17.926Z,11.00
2017-10-13T05:01:45.441Z,11.00
2017-10-13T05:04:12.932Z,11.00
2017-10-13T05:06:40.443Z,10.90
2017-10-13T05:09:09.146Z,10.90
2017-10-13T05:11:36.665Z,10.90
2017-10-13T05:14:04.168Z,10.90
2017-10-13T05:16:31.908Z,10.90
2017-10-13T05:18:59.397Z,10.90
2017-10-13T05:21:26.891Z,10.90
2017-10-13T05:23:54.433Z,10.90
2017-10-13T05:26:22.936Z,10.80
2017-10-13T05:28:50.449Z,10.70
2017-10-13T05:31:17.940Z,10.80
2017-10-13T05:33:45.521Z,10.70
2017-10-13T05:36:13.016Z,10.70
2017-10-13T05:38:40.511Z,10.70
2017-10-13T05:41:08.788Z,10.70
2017-10-13T05:43:37.049Z,10.70
2017-10-13T05:46:04.572Z,10.60
2017-10-13T05:48:32.060Z,10.70
2017-10-13T05:50:59.569Z,10.60
2017-10-13T05:53:27.067Z,10.70
2017-10-13T05:55:54.555Z,10.70
2017-10-13T05:58:23.223Z,10.80
2017-10-13T06:00:51.218Z,10.70
2017-10-13T06:03:18.775Z,10.80
2017-10-13T06:05:47.049Z,10.90
2017-10-13T06:08:15.373Z,11.00
2017-10-13T06:10:42.872Z,10.90
2017-10-13T06:13:10.372Z,11.00
2017-10-13T06:15:37.996Z,11.00
2017-10-13T06:18:05.497Z,11.00
2017-10-13T06:20:33.008Z,11.10
2017-10-13T06:23:00.500Z,11.20
2017-10-13T06:25:28.020Z,11.30
2017-10-13T06:27:55.739Z,11.30
2017-10-13T06:30:23.241Z,11.40
2017-10-13T06:32:50.760Z,11.50
2017-10-13T06:35:18.262Z,11.60
2017-10-13T06:37:45.772Z,11.60
2017-10-13T06:40:13.269Z,11.70
2017-10-13T06:42:40.780Z,11.80
2017-10-13T06:45:09.041Z,11.90
2017-10-13T06:47:37.323Z,11.90
2017-10-13T06:50:05.589Z,11.90
2017-10-13T06:52:33.080Z,11.90
2017-10-13T06:55:00.613Z,11.90
2017-10-13T06:57:28.128Z,11.90
2017-10-13T06:59:55.641Z,11.80
2017-10-13T07:02:23.905Z,11.90
2017-10-13T07:04:51.416Z,11.80
2017-10-13T07:07:18.917Z,12.00
2017-10-13T07:09:46.421Z,12.00
2017-10-13T07:12:13.949Z,12.00
2017-10-13T07:14:42.226Z,11.90
2017-10-13T07:17:10.521Z,12.00
2017-10-13T07:19:38.032Z,11.90
2017-10-13T07:22:05.562Z,11.90
2017-10-13T07:24:33.073Z,11.90
2017-10-13T07:27:00.574Z,11.90
2017-10-13T07:29:28.110Z,11.90
2017-10-13T07:31:56.388Z,11.80
2017-10-13T07:34:24.677Z,11.80
2017-10-13T07:36:52.180Z,11.70
2017-10-13T07:39:19.711Z,11.80
2017-10-13T07:41:47.274Z,11.90
2017-10-13T07:44:14.849Z,11.90
2017-10-13T07:46:42.354Z,11.90
2017-10-13T07:49:10.766Z,12.00
2017-10-13T07:51:38.301Z,12.00
2017-10-13T07:54:06.577Z,12.10
2017-10-13T07:56:34.121Z,12.00
2017-10-13T07:59:01.635Z,12.10
2017-10-13T08:01:29.182Z,12.20
2017-10-13T08:03:56.685Z,12.30
2017-10-13T08:06:24.193Z,12.30
2017-10-13T08:08:51.716Z,12.40
2017-10-13T08:11:19.224Z,12.50
2017-10-13T08:13:46.748Z,12.60
2017-10-13T08:16:14.255Z,12.60
2017-10-13T08:18:41.772Z,12.70
2017-10-13T08:21:10.041Z,12.80
2017-10-13T08:23:37.560Z,12.80
2017-10-13T08:26:05.079Z,12.90
2017-10-13T08:28:32.586Z,13.00
2017-10-13T08:31:00.123Z,13.00
2017-10-13T08:33:27.625Z,13.10
2017-10-13T08:35:55.149Z,13.20
2017-10-13T08:38:22.653Z,13.30
2017-10-13T08:40:50.183Z,13.30
2017-10-13T08:43:17.681Z,13.40
2017-10-13T08:45:45.187Z,13.50
2017-10-13T08:48:12.783Z,13.60
2017-10-13T08:50:40.377Z,13.60
2017-10-13T08:53:08.669Z,13.80
2017-10-13T08:55:36.171Z,13.70
2017-10-13T08:58:03.697Z,13.90
2017-10-13T09:00:31.209Z,14.00
2017-10-13T09:02:58.721Z,14.00
2017-10-13T09:05:26.241Z,14.10
2017-10-13T09:07:53.745Z,14.10
2017-10-13T09:10:21.256Z,14.20
2017-10-13T09:12:48.750Z,14.10
2017-10-13T09:15:16.269Z,14.20
2017-10-13T09:17:43.778Z,14.20
2017-10-13T09:20:11.285Z,14.30
2017-10-13T09:22:45.152Z,14.30
2017-10-13T09:25:12.668Z,14.20
2017-10-13T09:27:40.181Z,14.40
2017-10-13T09:30:08.469Z,14.40
2017-10-13T09:32:36.006Z,14.40
2017-10-13T09:35:03.506Z,14.40
2017-10-13T09:37:31.026Z,14.40
2017-10-13T09:39:58.541Z,14.40
2017-10-13T09:42:26.805Z,14.50
2017-10-13T09:44:54.342Z,14.50
2017-10-13T09:47:21.845Z,14.60
2017-10-13T09:49:50.125Z,14.70
2017-10-13T09:52:18.396Z,14.80
2017-10-13T09:54:46.689Z,14.90
2017-10-13T09:57:14.184Z,14.80
2017-10-13T09:59:41.710Z,14.90
2017-10-13T10:02:09.214Z,15.00
2017-10-13T10:04:36.726Z,15.10
2017-10-13T10:07:05.018Z,15.20
2017-10-13T10:09:32.532Z,15.10
2017-10-13T10:12:00.049Z,15.20
2017-10-13T10:14:27.556Z,15.30
2017-10-13T10:16:55.200Z,15.30
2017-10-13T10:19:22.708Z,15.40
2017-10-13T10:21:50.237Z,15.40
2017-10-13T10:24:17.728Z,15.40
2017-10-13T10:26:45.226Z,15.50
2017-10-13T10:29:12.749Z,15.50
2017-10-13T10:31:40.249Z,15.60
2017-10-13T10:34:07.771Z,15.60
2017-10-13T10:36:35.276Z,15.70
2017-10-13T10:39:02.786Z,15.80
2017-10-13T10:41:30.287Z,15.80
2017-10-13T10:43:57.805Z,15.90
2017-10-13T10:46:25.300Z,15.90
2017-10-13T10:48:52.797Z,15.90
2017-10-13T10:51:20.329Z,16.00
2017-10-13T10:53:47.827Z,16.00
2017-10-13T10:56:16.130Z,16.00
2017-10-13T10:58:43.632Z,16.00
2017-10-13T11:01:11.158Z,16.10
2017-10-13T11:03:38.656Z,16.10
2017-10-13T11:06:06.173Z,16.20
2017-10-13T11:08:33.705Z,16.40
2017-10-13T11:11:02.070Z,16.90
2017-10-13T11:13:29.589Z,16.80
2017-10-13T11:15:57.102Z,17.10
2017-10-13T11:18:25.392Z,17.10
2017-10-13T11:20:52.919Z,17.00
2017-10-13T11:23:20.437Z,17.10
2017-10-13T11:25:47.941Z,17.00
2017-10-13T11:28:15.445Z,17.00
2017-10-13T11:30:42.956Z,17.00
2017-10-13T11:33:10.460Z,16.90
2017-10-13T11:35:37.984Z,16.80
2017-10-13T11:38:06.274Z,16.60
2017-10-13T11:40:34.557Z,16.60
2017-10-13T11:43:02.826Z,16.70
2017-10-13T11:45:31.125Z,16.80
2017-10-13T11:47:58.697Z,16.70
2017-10-13T11:50:26.250Z,17.00
2017-10-13T11:52:53.781Z,17.20
2017-10-13T11:55:22.061Z,17.50
2017-10-13T11:57:50.413Z,17.70
2017-10-13T12:00:17.910Z,17.50
2017-10-13T12:02:46.199Z,17.80
2017-10-13T12:05:13.713Z,17.70
2017-10-13T12:07:41.214Z,17.80
2017-10-13T12:10:08.757Z,17.70
2017-10-13T12:12:37.125Z,17.60
2017-10-13T12:15:04.641Z,17.40
2017-10-13T12:17:32.140Z,17.50
2017-10-13T12:19:59.677Z,17.50
2017-10-13T12:22:27.184Z,17.50
2017-10-13T12:24:55.474Z,17.50
2017-10-13T12:27:22.977Z,17.40
2017-10-13T12:29:50.476Z,17.30
2017-10-13T12:32:18.763Z,17.30
2017-10-13T12:34:47.028Z,17.30
2017-10-13T12:37:15.313Z,17.30
2017-10-13T12:39:43.585Z,17.30
2017-10-13T12:42:11.880Z,17.20
2017-10-13T12:44:39.383Z,17.10
2017-10-13T12:47:06.913Z,17.10
2017-10-13T12:49:34.417Z,17.10
2017-10-13T12:52:01.923Z,17.10
2017-10-13T12:54:29.436Z,17.10
2017-10-13T12:56:56.944Z,17.10
2017-10-13T12:59:24.465Z,17.10
2017-10-13T13:01:51.960Z,17.00
2017-10-13T13:04:19.480Z,17.00
2017-10-13T13:06:46.980Z,17.00
2017-10-13T13:09:14.490Z,16.80
2017-10-13T13:11:42.017Z,16.80
2017-10-13T13:14:09.519Z,16.70
2017-10-13T13:16:37.040Z,16.70
2017-10-13T13:19:04.548Z,16.60
2017-10-13T13:21:32.828Z,16.80
2017-10-13T13:24:01.094Z,16.80
2017-10-13T13:26:28.589Z,16.70
2017-10-13T13:28:56.109Z,16.80
2017-10-13T13:31:23.600Z,16.90
2017-10-13T13:33:51.117Z,16.90
2017-10-13T13:36:18.621Z,16.90
2017-10-13T13:38:46.206Z,17.00
2017-10-13T13:41:13.700Z,17.10
2017-10-13T13:43:41.204Z,17.10
2017-10-13T13:46:08.721Z,17.10
2017-10-13T13:48:36.217Z,17.10
2017-10-13T13:51:03.735Z,17.10
2017-10-13T13:53:31.228Z,17.10
2017-10-13T13:55:59.512Z,17.20
2017-10-13T13:58:27.013Z,17.10
2017-10-13T14:00:54.518Z,17.20
2017-10-13T14:03:22.796Z,17.30
2017-10-13T14:05:51.063Z,17.30
2017-10-13T14:08:19.344Z,17.30
2017-10-13T14:10:47.613Z,17.40
2017-10-13T14:13:15.143Z,17.30
2017-10-13T14:15:42.645Z,17.40
2017-10-13T14:18:10.910Z,17.30
2017-10-13T14:20:38.425Z,17.20
2017-10-13T14:23:05.931Z,17.30
2017-10-13T14:25:33.457Z,17.50
2017-10-13T14:28:00.957Z,17.50
2017-10-13T14:30:29.248Z,17.60
2017-10-13T14:32:57.584Z,17.50
2017-10-13T14:35:25.093Z,17.50
2017-10-13T14:37:52.625Z,17.50
2017-10-13T14:40:20.120Z,17.40
2017-10-13T14:42:47.643Z,17.40
2017-10-13T14:45:15.875Z,17.30
2017-10-13T14:47:43.390Z,17.30
2017-10-13T14:50:11.647Z,17.20
2017-10-13T14:52:40.024Z,17.10
2017-10-13T14:55:07.552Z,17.10
2017-10-13T14:57:35.053Z,17.10
2017-10-13T15:00:02.569Z,17.00
2017-10-13T15:02:30.065Z,17.00
2017-10-13T15:04:57.585Z,16.90
2017-10-13T15:07:25.079Z,16.90
2017-10-13T15:09:52.613Z,16.80
2017-10-13T15:12:20.143Z,16.80
2017-10-13T15:14:47.663Z,16.70
2017-10-13T15:17:15.191Z,16.70
2017-10-13T15:19:42.689Z,16.60
2017-10-13T15:22:11.076Z,16.50
2017-10-13T15:24:39.346Z,16.40
2017-10-13T15:27:13.001Z,16.30
2017-10-13T15:29:46.174Z,16.30
2017-10-13T15:32:19.366Z,16.30
2017-10-13T15:34:52.562Z,16.30
2017-10-13T15:37:20.113Z,16.30
2017-10-13T15:39:54.161Z,16.20
2017-10-13T15:42:27.241Z,16.10
2017-10-13T15:44:54.742Z,16.00
2017-10-13T15:47:27.992Z,16.00
2017-10-13T15:50:01.209Z,15.90
2017-10-13T15:52:28.729Z,15.90
2017-10-13T15:54:56.289Z,15.80
2017-10-13T15:57:23.790Z,15.70
2017-10-13T15:59:51.311Z,15.70
2017-10-13T16:02:18.812Z,15.60
2017-10-13T16:04:46.330Z,15.50
2017-10-13T16:07:13.846Z,15.40
2017-10-13T16:09:41.376Z,15.40
2017-10-13T16:12:08.882Z,15.30
2017-10-13T16:14:37.158Z,15.00
2017-10-13T16:17:05.450Z,14.80
2017-10-13T16:19:32.950Z,14.70
2017-10-13T16:22:00.473Z,14.70
2017-10-13T16:24:27.978Z,14.60
2017-10-13T16:26:55.495Z,14.50
2017-10-13T16:29:23.003Z,14.40
2017-10-13T16:31:50.526Z,14.40
2017-10-13T16:34:18.037Z,14.20
2017-10-13T16:36:45.534Z,14.20
2017-10-13T16:39:13.068Z,14.10
2017-10-13T16:41:41.349Z,14.00
2017-10-13T16:44:09.633Z,14.00
2017-10-13T16:46:37.905Z,13.90
2017-10-13T16:49:06.251Z,13.80
2017-10-13T16:51:33.761Z,13.70
2017-10-13T16:54:01.306Z,13.80
2017-10-13T16:56:29.589Z,13.70
2017-10-13T16:58:57.856Z,13.60
2017-10-13T17:01:26.137Z,13.60
2017-10-13T17:03:54.645Z,13.50
2017-10-13T17:06:22.175Z,13.40
2017-10-13T17:08:50.446Z,13.40
2017-10-13T17:11:17.955Z,13.30
2017-10-13T17:13:45.511Z,13.40
2017-10-13T17:16:13.037Z,13.30
2017-10-13T17:18:41.344Z,13.30
2017-10-13T17:21:08.853Z,13.20
2017-10-13T17:23:37.138Z,13.20
2017-10-13T17:26:04.643Z,13.20
2017-10-13T17:28:32.145Z,13.20
2017-10-13T17:30:59.679Z,13.10
2017-10-13T17:33:27.190Z,13.20
2017-10-13T17:35:55.499Z,13.10
2017-10-13T17:38:23.006Z,13.00
2017-10-13T17:40:50.579Z,13.10
2017-10-13T17:43:18.280Z,13.10
2017-10-13T17:45:45.822Z,13.10
2017-10-13T17:48:13.359Z,13.10
2017-10-13T17:50:40.862Z,13.00
2017-10-13T17:53:08.386Z,13.00
2017-10-13T17:55:36.743Z,12.90
2017-10-13T17:58:04.272Z,12.90
2017-10-13T18:00:31.792Z,12.90
2017-10-13T18:03:00.235Z,12.90
2017-10-13T18:05:27.773Z,12.80
2017-10-13T18:07:55.285Z,12.80
2017-10-13T18:10:23.598Z,12.70
2017-10-13T18:12:51.127Z,12.70
2017-10-13T18:15:19.433Z,12.70
2017-10-13T18:17:46.971Z,12.60
2017-10-13T18:20:15.245Z,12.70
2017-10-13T18:22:43.550Z,12.60
2017-10-13T18:25:13.438Z,12.50
2017-10-13T18:27:41.751Z,12.60
2017-10-13T18:30:09.284Z,12.50
2017-10-13T18:32:36.848Z,12.60
2017-10-13T18:35:04.370Z,12.60
2017-10-13T18:37:31.930Z,12.60
2017-10-13T18:39:59.472Z,12.50
2017-10-13T18:42:27.100Z,12.50
2017-10-13T18:44:54.609Z,12.60
2017-10-13T18:47:22.121Z,12.60
2017-10-13T18:49:49.649Z,12.60
2017-10-13T18:52:17.921Z,12.60
2017-10-13T18:54:45.441Z,12.50
2017-10-13T18:57:12.969Z,12.60
2017-10-13T18:59:41.315Z,12.60
2017-10-13T19:02:08.832Z,12.60
2017-10-13T19:04:36.341Z,12.60
2017-10-13T19:07:04.639Z,12.60
2017-10-13T19:09:32.918Z,12.50
2017-10-13T19:12:01.415Z,12.50
2017-10-13T19:14:28.929Z,12.50
2017-10-13T19:16:56.445Z,12.40
2017-10-13T19:22:01.774Z,12.40
2017-10-13T19:24:32.901Z,12.40
2017-10-13T19:27:00.922Z,12.30
2017-10-13T19:29:28.445Z,12.40
2017-10-13T19:31:56.722Z,12.40
2017-10-13T19:34:24.256Z,12.30
2017-10-13T19:36:51.762Z,12.40
2017-10-13T19:39:19.273Z,12.40
2017-10-13T19:41:46.808Z,12.40
2017-10-13T19:44:14.349Z,12.30
2017-10-13T19:46:41.886Z,12.20
2017-10-13T19:49:10.176Z,12.20
2017-10-13T19:51:37.710Z,12.10
2017-10-13T19:54:06.220Z,12.30
2017-10-13T19:56:33.973Z,12.20
2017-10-13T19:59:02.269Z,12.30
2017-10-13T20:01:29.831Z,12.20
2017-10-13T20:03:58.303Z,12.30
2017-10-13T20:06:25.850Z,12.30
2017-10-13T20:08:57.274Z,12.30
2017-10-13T20:11:25.845Z,12.20
2017-10-13T20:13:53.381Z,12.20
2017-10-13T20:16:20.946Z,12.30
2017-10-13T20:18:48.491Z,12.30
2017-10-13T20:21:16.001Z,12.30
2017-10-13T20:23:43.534Z,12.20
2017-10-13T20:26:11.053Z,12.20
2017-10-13T20:28:40.325Z,12.20
2017-10-13T20:31:08.269Z,12.10
2017-10-13T20:33:35.819Z,12.20
2017-10-13T20:36:04.963Z,12.20
2017-10-13T20:38:33.232Z,12.30
2017-10-13T20:41:03.480Z,12.20
2017-10-13T20:43:31.753Z,12.20
2017-10-13T20:46:00.062Z,12.20
2017-10-13T20:48:27.597Z,12.10
2017-10-13T20:50:55.170Z,12.20
2017-10-13T20:53:22.683Z,12.10
2017-10-13T20:55:50.197Z,12.10
2017-10-13T20:58:17.722Z,12.10
2017-10-13T21:00:45.993Z,12.00
2017-10-13T21:03:13.529Z,12.00
2017-10-13T21:05:41.806Z,12.10
2017-10-13T21:08:09.347Z,12.00
2017-10-13T21:10:36.849Z,12.00
2017-10-13T21:13:04.349Z,12.00
2017-10-13T21:15:31.877Z,12.00
2017-10-13T21:18:00.153Z,12.00
2017-10-13T21:20:28.453Z,12.00
2017-10-13T21:22:57.155Z,11.90
2017-10-13T21:25:24.699Z,11.90
2017-10-13T21:27:52.236Z,11.90
2017-10-13T21:30:21.832Z,11.90
2017-10-13T21:32:49.387Z,11.80
2017-10-13T21:35:16.934Z,11.90
2017-10-13T21:37:44.464Z,11.90
2017-10-13T21:40:11.980Z,11.90
2017-10-13T21:42:40.285Z,11.90
2017-10-13T21:45:07.794Z,11.80
2017-10-13T21:47:35.323Z,11.80
2017-10-13T21:50:02.849Z,11.80
2017-10-13T21:52:31.129Z,11.80
2017-10-13T21:54:59.405Z,11.70
2017-10-13T21:57:27.705Z,11.70
2017-10-13T21:59:55.258Z,11.60
2017-10-13T22:02:22.794Z,11.70
2017-10-13T22:04:55.975Z,11.70
2017-10-13T22:07:24.278Z,11.70
2017-10-13T22:09:52.678Z,11.70
2017-10-13T22:12:20.193Z,11.60
2017-10-13T22:14:47.721Z,11.60
2017-10-13T22:17:16.083Z,11.60
2017-10-13T22:19:43.614Z,11.50
2017-10-13T22:22:11.893Z,11.50
2017-10-13T22:24:41.033Z,11.50
2017-10-13T22:27:08.561Z,11.40
2017-10-13T22:29:36.065Z,11.50
2017-10-13T22:32:03.600Z,11.50
2017-10-13T22:34:31.113Z,11.50
2017-10-13T22:36:59.415Z,11.50
2017-10-13T22:39:27.687Z,11.50
2017-10-13T22:41:55.957Z,11.50
2017-10-13T22:44:24.265Z,11.50
2017-10-13T22:46:51.763Z,11.40
2017-10-13T22:49:19.297Z,11.40
2017-10-13T22:51:46.812Z,11.40
2017-10-13T22:54:14.327Z,11.30
2017-10-13T22:56:41.844Z,11.30
2017-10-13T22:59:10.137Z,11.30
2017-10-13T23:01:37.646Z,11.20
2017-10-13T23:04:05.187Z,11.30
2017-10-13T23:06:32.712Z,11.30
2017-10-13T23:09:00.236Z,11.30
2017-10-13T23:11:27.773Z,11.30
2017-10-13T23:13:55.284Z,11.30
2017-10-13T23:16:22.809Z,11.20
2017-10-13T23:18:50.329Z,11.20
2017-10-13T23:21:17.829Z,11.20
2017-10-13T23:23:45.352Z,11.20
2017-10-13T23:26:12.850Z,11.20
2017-10-13T23:28:40.376Z,11.20
2017-10-13T23:31:07.883Z,11.20
2017-10-13T23:33:35.393Z,11.20
2017-10-13T23:36:02.931Z,11.20
2017-10-13T23:38:30.424Z,11.00
2017-10-13T23:40:57.941Z,11.00
2017-10-13T23:43:25.453Z,11.10
2017-10-13T23:45:52.963Z,11.00
2017-10-13T23:48:20.495Z,11.10
2017-10-13T23:50:48.764Z,11.00
2017-10-13T23:53:16.294Z,11.00
2017-10-13T23:55:43.805Z,11.10
2017-10-13T23:58:12.078Z,11.00
